Time;durP1;ratioP1;P1;durP2;ratioP2;P2;SDS_P1;SDS_P2;PMS_P1;PMS_P2;Temp;Humidity;BMP_temperature;BMP_pressure;BME280_temperature;BME280_humidity;BME280_pressure;Samples;Min_cycle;Max_cycle;Signal;HPM_P1;HPM_P2
2022/05/19 00:01:29;;;;;;;11.68;10.57;;;23.80;82.60;;;;;;4995212;28;20022;-66
2022/05/19 00:03:54;;;;;;;11.27;10.10;;;23.90;82.40;;;;;;4994981;28;20026;-66
2022/05/19 00:06:20;;;;;;;13.63;10.80;;;24.00;82.50;;;;;;4994920;28;20028;-65
2022/05/19 00:08:46;;;;;;;14.82;11.10;;;23.90;82.70;;;;;;4994911;28;20113;-67
2022/05/19 00:11:15;;;;;;;17.40;10.85;;;23.90;82.60;;;;;;4994090;28;20029;-62
2022/05/19 00:13:41;;;;;;;14.38;10.90;;;23.90;83.20;;;;;;4994526;28;20092;-65
2022/05/19 00:16:07;;;;;;;13.13;10.70;;;24.00;82.50;;;;;;4994638;28;20018;-66
2022/05/19 00:18:34;;;;;;;15.88;11.98;;;23.90;82.80;;;;;;4994622;28;20100;-66
2022/05/19 00:21:00;;;;;;;12.20;10.80;;;24.00;82.80;;;;;;4994562;28;20019;-66
2022/05/19 00:23:26;;;;;;;13.88;11.07;;;23.90;82.70;;;;;;4994638;28;20034;-66
2022/05/19 00:25:51;;;;;;;13.05;10.52;;;24.00;82.80;;;;;;4994101;28;20022;-66
2022/05/19 00:28:17;;;;;;;12.82;11.02;;;24.00;82.70;;;;;;4994217;28;20046;-67
2022/05/19 00:30:43;;;;;;;14.68;10.57;;;24.00;82.70;;;;;;4994460;28;20033;-66
2022/05/19 00:33:10;;;;;;;13.55;11.18;;;24.00;82.90;;;;;;4994391;28;20088;-65
2022/05/19 00:35:38;;;;;;;12.75;11.43;;;24.00;82.80;;;;;;4993041;28;20069;-67
2022/05/19 00:38:04;;;;;;;14.27;11.10;;;24.00;82.80;;;;;;4992940;28;20042;-66
2022/05/19 00:40:30;;;;;;;13.20;11.80;;;24.00;82.90;;;;;;4993954;28;20045;-67
2022/05/19 00:42:56;;;;;;;13.52;11.38;;;24.00;83.00;;;;;;4994313;28;20106;-67
2022/05/19 00:45:33;;;;;;;14.25;12.05;;;24.00;83.20;;;;;;4994254;28;20022;-64
2022/05/19 00:48:08;;;;;;;17.17;12.27;;;23.90;83.30;;;;;;4994157;28;20419;-66
2022/05/19 00:50:40;;;;;;;14.30;11.75;;;23.90;83.40;;;;;;4994125;28;20027;-66
2022/05/19 00:53:12;;;;;;;19.35;12.75;;;24.00;83.40;;;;;;4994117;28;20030;-66
2022/05/19 00:55:42;;;;;;;16.50;11.27;;;24.00;83.60;;;;;;4993571;28;20358;-67
2022/05/19 00:58:15;;;;;;;16.38;11.63;;;23.90;83.90;;;;;;4993991;28;20455;-66
2022/05/19 01:00:41;;;;;;;12.43;11.23;;;23.90;83.90;;;;;;4993830;28;20026;-66
2022/05/19 01:03:07;;;;;;;12.90;11.23;;;23.90;83.90;;;;;;4993974;28;20105;-66
2022/05/19 01:05:41;;;;;;;12.18;10.80;;;24.00;83.80;;;;;;5002560;28;20393;-66
2022/05/19 01:08:20;;;;;;;13.10;10.77;;;24.00;83.50;;;;;;5004687;28;20418;-66
2022/05/19 01:10:46;;;;;;;14.20;10.45;;;24.00;83.40;;;;;;5012973;28;20544;-66
2022/05/19 01:13:12;;;;;;;12.48;10.85;;;24.10;83.30;;;;;;5013358;28;20041;-65
2022/05/19 01:15:42;;;;;;;11.65;10.45;;;24.10;83.20;;;;;;5012849;28;20033;-66
2022/05/19 01:18:10;;;;;;;12.18;8.75;;;24.10;83.50;;;;;;5012965;28;20033;-66
2022/05/19 01:20:36;;;;;;;16.33;9.07;;;24.10;83.60;;;;;;5013324;28;20109;-67
2022/05/19 01:23:26;;;;;;;13.57;8.40;;;24.10;83.80;;;;;;5013312;28;20053;-65
2022/05/19 01:25:56;;;;;;;10.68;8.93;;;24.10;84.00;;;;;;5012844;28;20021;-66
2022/05/19 01:28:22;;;;;;;13.70;10.80;;;24.10;84.70;;;;;;5013107;28;20033;-65
2022/05/19 01:30:48;;;;;;;11.73;10.00;;;24.10;86.40;;;;;;5013269;28;20026;-65
2022/05/19 01:33:13;;;;;;;23.05;12.60;;;24.10;86.80;;;;;;5013027;28;20034;-64
2022/05/19 01:35:39;;;;;;;30.10;16.23;;;24.10;88.80;;;;;;5013315;28;20018;-66
2022/05/19 01:38:20;;;;;;;21.60;14.25;;;24.00;90.70;;;;;;5013221;28;20105;-66
2022/05/19 01:40:54;;;;;;;21.85;13.70;;;24.00;91.20;;;;;;5012963;28;20497;-63
2022/05/19 01:43:45;;;;;;;18.75;13.00;;;24.00;91.60;;;;;;5013250;28;20535;-66
2022/05/19 01:46:33;;;;;;;18.17;13.48;;;24.00;92.00;;;;;;5013077;28;20026;-63
2022/05/19 01:49:33;;;;;;;18.92;14.23;;;24.00;92.20;;;;;;5013200;28;20021;-67
2022/05/19 01:52:15;;;;;;;14.20;12.70;;;24.00;92.20;;;;;;5007796;28;20041;-66
2022/05/19 01:55:03;;;;;;;13.77;10.68;;;23.90;92.20;;;;;;5012747;28;20142;-66
2022/05/19 01:57:39;;;;;;;13.10;11.65;;;23.90;92.20;;;;;;5013239;28;20479;-66
2022/05/19 02:00:18;;;;;;;14.90;11.55;;;23.90;92.50;;;;;;5013024;28;20085;-65
2022/05/19 02:03:08;;;;;;;18.10;12.13;;;23.90;92.40;;;;;;5013176;28;20559;-66
2022/05/19 02:05:53;;;;;;;15.75;11.63;;;23.90;92.50;;;;;;5012901;28;20040;-65
2022/05/19 02:08:31;;;;;;;14.35;10.82;;;23.90;92.70;;;;;;5012532;28;20022;-66
2022/05/19 02:11:06;;;;;;;13.82;12.35;;;23.90;92.90;;;;;;5012754;28;20483;-67
2022/05/19 02:13:33;;;;;;;14.18;12.00;;;23.90;93.40;;;;;;5012786;28;20038;-66
2022/05/19 02:16:03;;;;;;;14.43;12.07;;;23.80;93.60;;;;;;5012959;28;20491;-65
2022/05/19 02:18:29;;;;;;;17.38;11.77;;;23.90;93.60;;;;;;5013005;28;20022;-67
2022/05/19 02:20:58;;;;;;;15.10;12.05;;;23.80;93.80;;;;;;5012722;28;20028;-66
2022/05/19 02:23:24;;;;;;;15.50;11.82;;;23.90;94.10;;;;;;5005655;28;20472;-66
2022/05/19 02:25:52;;;;;;;14.93;11.88;;;23.80;94.30;;;;;;4992711;28;20105;-65
2022/05/19 02:28:27;;;;;;;17.00;10.90;;;23.80;94.50;;;;;;4992884;28;20062;-66
2022/05/19 02:30:55;;;;;;;13.48;10.25;;;23.80;94.10;;;;;;4993022;28;20376;-62
2022/05/19 02:33:21;;;;;;;13.20;9.40;;;23.80;94.00;;;;;;4993022;28;20034;-65
2022/05/19 02:35:47;;;;;;;12.05;8.50;;;23.80;93.80;;;;;;4994953;28;20101;-66
2022/05/19 02:38:14;;;;;;;11.38;7.00;;;23.80;93.70;;;;;;4996124;28;20473;-62
2022/05/19 02:40:41;;;;;;;9.80;6.10;;;23.80;93.40;;;;;;4996645;28;20018;-67
2022/05/19 02:43:08;;;;;;;8.45;4.95;;;23.70;93.10;;;;;;4996431;28;20114;-66
2022/05/19 02:45:34;;;;;;;10.07;5.40;;;23.70;92.70;;;;;;4996259;28;20102;-66
2022/05/19 02:48:00;;;;;;;6.40;4.57;;;23.70;92.70;;;;;;4996403;28;20037;-66
2022/05/19 02:50:27;;;;;;;6.75;4.03;;;23.70;92.40;;;;;;4996406;28;20038;-66
2022/05/19 02:52:52;;;;;;;5.20;3.60;;;23.70;92.00;;;;;;4995823;28;20026;-66
2022/05/19 02:55:18;;;;;;;8.02;3.40;;;23.70;92.10;;;;;;4996415;28;20022;-66
2022/05/19 02:57:44;;;;;;;5.13;2.40;;;23.70;91.90;;;;;;4995957;28;20018;-66
2022/05/19 03:00:14;;;;;;;4.63;2.13;;;23.60;90.60;;;;;;4996190;28;20112;-65
2022/05/19 03:02:41;;;;;;;7.22;2.92;;;23.50;90.40;;;;;;4995826;28;20385;-66
2022/05/19 03:05:09;;;;;;;7.18;3.40;;;23.40;90.90;;;;;;4996036;28;20030;-66
2022/05/19 03:07:35;;;;;;;6.38;3.20;;;23.40;90.80;;;;;;4995548;28;20022;-66
2022/05/19 03:10:01;;;;;;;5.28;2.95;;;23.40;91.00;;;;;;4996194;28;20031;-66
2022/05/19 03:12:26;;;;;;;5.93;2.75;;;23.40;91.40;;;;;;4995719;28;20044;-64
2022/05/19 03:14:52;;;;;;;6.05;3.15;;;23.50;91.60;;;;;;4995776;28;20022;-66
2022/05/19 03:17:18;;;;;;;5.63;2.83;;;23.50;91.50;;;;;;4995868;28;20380;-66
2022/05/19 03:19:43;;;;;;;5.90;3.08;;;23.50;91.50;;;;;;4995810;28;20034;-65
2022/05/19 03:22:09;;;;;;;7.47;2.88;;;23.50;91.80;;;;;;4995337;28;20026;-65
2022/05/19 03:24:34;;;;;;;4.40;2.55;;;23.50;91.70;;;;;;4995712;28;20018;-66
2022/05/19 03:27:00;;;;;;;5.72;2.67;;;23.40;90.90;;;;;;4995420;28;20457;-66
2022/05/19 03:29:26;;;;;;;6.03;2.80;;;23.50;90.60;;;;;;4995523;28;20109;-66
2022/05/19 03:31:52;;;;;;;7.85;3.45;;;23.40;91.30;;;;;;4995555;28;20022;-66
2022/05/19 03:34:17;;;;;;;8.15;4.53;;;23.40;91.70;;;;;;4994092;28;20037;-64
2022/05/19 03:36:47;;;;;;;9.15;4.40;;;23.40;91.80;;;;;;4995253;28;20472;-65
2022/05/19 03:39:13;;;;;;;15.57;5.57;;;23.40;91.80;;;;;;4995400;28;20049;-63
2022/05/19 03:41:39;;;;;;;8.20;3.70;;;23.40;91.70;;;;;;4995318;28;20022;-63
2022/05/19 03:44:05;;;;;;;5.00;3.80;;;23.50;91.20;;;;;;4995289;28;20487;-64
2022/05/19 03:46:30;;;;;;;5.47;3.30;;;23.60;90.70;;;;;;4994125;28;20018;-64
2022/05/19 03:48:56;;;;;;;6.95;3.63;;;23.70;90.80;;;;;;4994906;28;20041;-63
2022/05/19 03:51:24;;;;;;;5.45;3.30;;;23.60;90.20;;;;;;4995233;28;20029;-64
2022/05/19 03:53:50;;;;;;;8.25;3.30;;;23.60;90.10;;;;;;4994995;28;20434;-63
2022/05/19 03:56:17;;;;;;;6.15;3.60;;;23.60;90.10;;;;;;4995097;28;20105;-64
2022/05/19 03:58:42;;;;;;;4.43;2.95;;;23.60;90.50;;;;;;4994948;28;20034;-64
2022/05/19 04:01:08;;;;;;;4.05;3.10;;;23.60;90.00;;;;;;4993839;28;20019;-64
2022/05/19 04:03:34;;;;;;;5.18;2.83;;;23.60;90.10;;;;;;4994718;28;20390;-64
2022/05/19 04:05:59;;;;;;;5.32;3.30;;;23.60;90.10;;;;;;4994941;28;20030;-64
2022/05/19 04:08:25;;;;;;;4.20;2.80;;;23.50;90.10;;;;;;4994617;28;20030;-64
2022/05/19 04:10:50;;;;;;;6.93;2.95;;;23.40;90.10;;;;;;4994840;28;20041;-64
2022/05/19 04:13:16;;;;;;;4.45;2.85;;;23.40;90.30;;;;;;4994940;28;20463;-64
2022/05/19 04:15:42;;;;;;;5.00;2.58;;;23.30;90.30;;;;;;4994690;28;20109;-63
2022/05/19 04:18:07;;;;;;;3.83;2.83;;;23.40;90.00;;;;;;4994380;28;20034;-63
2022/05/19 04:20:33;;;;;;;6.22;3.00;;;23.40;90.10;;;;;;4994661;28;20029;-63
2022/05/19 04:23:02;;;;;;;5.82;2.92;;;23.50;90.10;;;;;;4994654;28;20579;-63
2022/05/19 04:25:29;;;;;;;4.78;2.88;;;23.60;89.80;;;;;;4994266;28;20023;-63
2022/05/19 04:27:56;;;;;;;4.70;2.90;;;23.50;89.60;;;;;;4994380;28;20035;-63
2022/05/19 04:30:22;;;;;;;4.50;3.33;;;23.50;90.40;;;;;;4994409;28;20022;-63
2022/05/19 04:32:47;;;;;;;4.72;2.95;;;23.50;90.10;;;;;;4994090;28;20030;-63
2022/05/19 04:35:14;;;;;;;4.05;3.22;;;23.60;90.40;;;;;;4994425;28;20495;-64
2022/05/19 04:37:40;;;;;;;4.38;3.03;;;23.50;90.70;;;;;;4994364;28;20036;-64
2022/05/19 04:40:07;;;;;;;6.13;3.67;;;23.60;90.80;;;;;;4993948;28;20027;-64
2022/05/19 04:42:32;;;;;;;7.78;3.25;;;23.50;90.90;;;;;;4994427;28;20120;-64
2022/05/19 04:44:58;;;;;;;6.75;3.47;;;23.60;91.10;;;;;;4994279;28;20472;-64
2022/05/19 04:47:24;;;;;;;4.38;3.38;;;23.50;91.00;;;;;;4993927;28;20492;-64
2022/05/19 04:49:50;;;;;;;6.30;3.30;;;23.60;91.30;;;;;;4994105;28;20173;-64
2022/05/19 04:52:16;;;;;;;6.43;3.47;;;23.60;91.40;;;;;;4994052;28;20516;-63
2022/05/19 04:54:42;;;;;;;5.65;3.13;;;23.60;91.00;;;;;;4993926;28;20083;-63
2022/05/19 04:57:10;;;;;;;5.45;3.50;;;23.60;91.00;;;;;;4993998;28;20023;-62
2022/05/19 04:59:40;;;;;;;4.28;3.33;;;23.50;90.90;;;;;;4993782;28;20061;-63
2022/05/19 05:02:06;;;;;;;5.60;2.83;;;23.50;90.80;;;;;;5003581;28;20052;-63
2022/05/19 05:04:31;;;;;;;4.70;3.17;;;23.40;90.90;;;;;;5012888;28;20448;-63
2022/05/19 05:06:57;;;;;;;4.20;2.72;;;23.50;90.90;;;;;;5011383;28;20475;-64
2022/05/19 05:09:23;;;;;;;4.25;3.30;;;23.40;90.80;;;;;;5012065;28;20494;-64
2022/05/19 05:11:49;;;;;;;4.90;2.88;;;23.50;90.70;;;;;;5012091;28;20033;-64
2022/05/19 05:14:16;;;;;;;6.03;3.50;;;23.40;90.80;;;;;;5012870;28;20033;-63
2022/05/19 05:16:49;;;;;;;3.83;3.03;;;23.40;90.80;;;;;;5011584;28;20160;-63
2022/05/19 05:19:18;;;;;;;5.28;3.50;;;23.30;90.90;;;;;;5013198;28;20021;-63
2022/05/19 05:21:45;;;;;;;4.50;3.22;;;23.40;90.80;;;;;;5014478;28;20048;-63
2022/05/19 05:24:10;;;;;;;4.97;3.10;;;23.40;90.90;;;;;;5011684;28;20030;-64
2022/05/19 05:26:36;;;;;;;4.18;3.28;;;23.40;91.10;;;;;;5012813;28;20105;-64
2022/05/19 05:29:02;;;;;;;4.70;3.75;;;23.40;91.30;;;;;;5012835;28;20038;-64
2022/05/19 05:31:28;;;;;;;5.30;3.42;;;23.40;91.70;;;;;;5016091;28;20364;-64
2022/05/19 05:33:53;;;;;;;5.28;4.32;;;23.50;91.80;;;;;;5032677;28;20068;-64
2022/05/19 05:36:19;;;;;;;4.20;3.33;;;23.50;91.60;;;;;;5020743;28;20037;-65
2022/05/19 05:38:44;;;;;;;6.07;3.72;;;23.40;91.60;;;;;;5009787;28;20037;-64
2022/05/19 05:41:10;;;;;;;7.22;4.43;;;23.40;91.60;;;;;;5011917;28;20038;-64
2022/05/19 05:43:39;;;;;;;5.25;4.00;;;23.40;92.00;;;;;;5020720;28;20022;-64
2022/05/19 05:46:08;;;;;;;4.75;4.03;;;23.40;92.00;;;;;;5011553;28;20112;-64
2022/05/19 05:48:36;;;;;;;7.13;4.15;;;23.40;92.00;;;;;;5010845;28;20031;-64
2022/05/19 05:51:06;;;;;;;8.40;4.25;;;23.40;92.30;;;;;;5008734;28;20026;-64
2022/05/19 05:53:32;;;;;;;6.20;4.00;;;23.50;92.70;;;;;;5012840;28;20034;-64
2022/05/19 05:55:58;;;;;;;5.03;3.60;;;23.50;92.70;;;;;;5008028;28;20033;-64
2022/05/19 05:58:23;;;;;;;7.45;4.03;;;23.50;92.60;;;;;;5017570;28;20422;-65
2022/05/19 06:00:49;;;;;;;6.15;3.95;;;23.60;92.40;;;;;;5011187;28;20387;-64
2022/05/19 06:03:14;;;;;;;5.45;3.78;;;23.60;92.50;;;;;;5007675;28;20475;-64
2022/05/19 06:05:40;;;;;;;8.77;3.97;;;23.60;92.70;;;;;;5010210;28;20697;-67
2022/05/19 06:08:06;;;;;;;8.15;3.53;;;23.60;92.60;;;;;;5001705;28;20045;-68
2022/05/19 06:10:31;;;;;;;5.00;3.83;;;23.70;92.50;;;;;;5008521;28;20439;-65
2022/05/19 06:12:57;;;;;;;5.38;3.60;;;23.70;92.20;;;;;;5016164;28;20109;-65
2022/05/19 06:15:23;;;;;;;6.25;3.47;;;23.70;92.00;;;;;;5015630;28;20538;-65
2022/05/19 06:17:48;;;;;;;5.65;3.83;;;23.80;91.90;;;;;;5015055;28;20053;-66
2022/05/19 06:20:16;;;;;;;11.30;3.85;;;23.80;92.00;;;;;;5007593;28;20329;-67
2022/05/19 06:22:46;;;;;;;21.58;6.22;;;23.80;91.70;;;;;;5016022;28;20030;-67
2022/05/19 06:25:15;;;;;;;12.23;4.82;;;23.80;91.60;;;;;;5016348;28;20506;-70
2022/05/19 06:27:41;;;;;;;9.40;4.55;;;23.90;91.60;;;;;;5014598;28;20041;-67
2022/05/19 06:30:08;;;;;;;9.90;4.00;;;23.90;91.50;;;;;;5014209;28;20056;-67
2022/05/19 06:32:34;;;;;;;6.88;3.80;;;23.90;91.30;;;;;;5015790;28;20475;-66
2022/05/19 06:35:00;;;;;;;7.45;3.92;;;24.00;92.00;;;;;;5016119;28;20062;-68
2022/05/19 06:37:26;;;;;;;7.38;3.30;;;24.00;93.00;;;;;;5012135;28;20088;-68
2022/05/19 06:39:51;;;;;;;5.25;3.95;;;24.00;92.60;;;;;;5015579;28;20029;-65
2022/05/19 06:42:17;;;;;;;7.45;3.90;;;24.00;93.00;;;;;;5011917;28;20021;-65
2022/05/19 06:44:43;;;;;;;6.90;4.03;;;24.00;92.80;;;;;;5014700;28;20037;-65
2022/05/19 06:47:15;;;;;;;4.20;3.60;;;24.10;92.80;;;;;;5010943;28;20484;-67
2022/05/19 06:49:44;;;;;;;5.20;3.25;;;24.10;92.00;;;;;;5015876;28;20071;-65
2022/05/19 06:52:13;;;;;;;4.45;2.85;;;24.10;92.10;;;;;;5015676;28;20173;-66
2022/05/19 06:54:39;;;;;;;4.07;3.08;;;24.10;91.50;;;;;;5015364;28;20022;-66
2022/05/19 06:57:05;;;;;;;6.80;3.17;;;24.10;91.30;;;;;;5015828;28;20037;-66
2022/05/19 06:59:30;;;;;;;7.80;3.40;;;24.10;91.20;;;;;;5014078;28;20030;-66
2022/05/19 07:01:57;;;;;;;5.57;3.20;;;24.10;91.20;;;;;;5014756;28;20049;-65
2022/05/19 07:04:23;;;;;;;5.43;3.30;;;24.10;91.20;;;;;;5015548;28;20160;-66
2022/05/19 07:06:48;;;;;;;4.15;3.33;;;24.20;91.10;;;;;;5014815;28;20120;-66
2022/05/19 07:09:14;;;;;;;5.90;2.92;;;24.10;91.10;;;;;;5015394;28;20491;-67
2022/05/19 07:11:39;;;;;;;3.42;2.75;;;24.20;91.00;;;;;;5013535;28;20487;-65
2022/05/19 07:14:07;;;;;;;4.60;3.00;;;24.20;91.00;;;;;;5010413;28;20042;-67
2022/05/19 07:16:33;;;;;;;4.45;2.80;;;24.20;90.90;;;;;;5001199;28;20376;-66
2022/05/19 07:21:45;;;;;;;5.28;3.03;;;24.30;90.70;;;;;;5014478;28;20208;-67
2022/05/19 07:24:14;;;;;;;7.88;3.05;;;24.30;90.60;;;;;;5003202;28;20068;-67
2022/05/19 07:26:41;;;;;;;22.33;4.25;;;24.30;90.40;;;;;;5013944;28;20040;-64
2022/05/19 07:29:07;;;;;;;8.18;3.05;;;24.30;90.50;;;;;;5012769;28;20555;-66
2022/05/19 07:31:32;;;;;;;10.38;2.80;;;24.30;90.60;;;;;;5023821;28;20029;-66
2022/05/19 07:33:58;;;;;;;6.65;3.65;;;24.30;90.30;;;;;;5033958;28;20045;-62
2022/05/19 07:36:23;;;;;;;6.70;2.95;;;24.30;90.10;;;;;;5032604;28;20572;-62
2022/05/19 07:38:49;;;;;;;8.18;3.17;;;24.30;90.00;;;;;;5021895;28;20395;-66
2022/05/19 07:41:15;;;;;;;5.07;3.30;;;24.30;90.00;;;;;;5007775;28;20582;-65
2022/05/19 07:43:41;;;;;;;6.72;3.35;;;24.30;89.90;;;;;;5012449;28;20030;-64
2022/05/19 07:46:08;;;;;;;6.97;3.15;;;24.40;90.10;;;;;;5014664;28;20454;-60
2022/05/19 07:48:35;;;;;;;7.10;3.85;;;24.40;90.30;;;;;;5012457;28;20018;-61
2022/05/19 07:51:02;;;;;;;7.72;3.38;;;24.40;90.00;;;;;;5001312;28;20034;-63
2022/05/19 07:53:28;;;;;;;8.35;3.90;;;24.40;90.20;;;;;;5012420;28;20477;-67
2022/05/19 07:55:54;;;;;;;6.68;3.40;;;24.40;90.20;;;;;;5008536;28;20026;-65
2022/05/19 07:58:20;;;;;;;5.38;3.50;;;24.50;90.30;;;;;;5011101;28;20025;-64
2022/05/19 08:00:46;;;;;;;14.68;3.78;;;24.50;90.20;;;;;;5014457;28;20541;-64
2022/05/19 08:03:13;;;;;;;20.85;4.85;;;24.50;90.20;;;;;;5013043;28;20029;-62
2022/05/19 08:05:39;;;;;;;11.18;4.43;;;24.50;90.20;;;;;;5014088;28;20531;-66
2022/05/19 08:08:05;;;;;;;9.32;4.00;;;24.50;90.60;;;;;;5014108;28;20326;-67
2022/05/19 08:10:30;;;;;;;8.73;4.50;;;24.60;90.90;;;;;;5013967;28;20034;-61
2022/05/19 08:15:44;;;;;;;10.80;4.57;;;24.60;90.90;;;;;;5014466;28;20408;-68
2022/05/19 08:18:16;;;;;;;8.40;4.45;;;24.60;90.70;;;;;;5014324;28;20038;-67
2022/05/19 08:20:54;;;;;;;6.03;5.10;;;24.60;90.50;;;;;;5014264;28;20030;-63
2022/05/19 08:23:23;;;;;;;6.15;4.18;;;24.60;90.40;;;;;;5014134;28;20292;-68
2022/05/19 08:25:50;;;;;;;6.05;4.25;;;24.60;90.30;;;;;;5013917;28;20468;-67
2022/05/19 08:28:17;;;;;;;8.85;4.70;;;24.60;90.30;;;;;;5013787;28;20065;-65
2022/05/19 08:30:48;;;;;;;18.65;6.15;;;24.60;90.30;;;;;;5013906;28;20033;-68
2022/05/19 08:33:16;;;;;;;16.20;5.40;;;24.60;90.40;;;;;;5013160;28;20042;-66
2022/05/19 08:35:42;;;;;;;14.63;5.72;;;24.60;90.30;;;;;;5014057;28;20487;-67
2022/05/19 08:38:08;;;;;;;11.57;5.30;;;24.60;90.30;;;;;;5013222;28;20491;-61
2022/05/19 08:40:39;;;;;;;10.05;5.03;;;24.70;90.40;;;;;;5013281;28;20399;-68
2022/05/19 08:43:06;;;;;;;8.38;5.57;;;24.70;90.30;;;;;;5013795;28;20048;-67
2022/05/19 08:45:37;;;;;;;6.85;5.43;;;24.70;90.50;;;;;;4998315;28;20114;-65
2022/05/19 08:48:19;;;;;;;10.27;5.50;;;24.70;90.50;;;;;;4994371;28;20089;-68
2022/05/19 08:50:53;;;;;;;8.23;5.97;;;24.70;90.50;;;;;;5009535;28;20403;-68
2022/05/19 08:53:19;;;;;;;12.18;5.22;;;24.80;91.00;;;;;;5002487;28;20045;-67
2022/05/19 08:55:50;;;;;;;14.30;5.30;;;24.80;90.90;;;;;;5013479;28;20080;-67
2022/05/19 08:58:18;;;;;;;5.43;4.88;;;24.80;91.00;;;;;;4997448;28;20034;-65
2022/05/19 09:00:55;;;;;;;6.00;5.13;;;24.80;90.80;;;;;;4993771;28;20034;-66
2022/05/19 09:03:29;;;;;;;7.53;5.70;;;24.80;90.50;;;;;;4997085;28;20505;-65
2022/05/19 09:06:16;;;;;;;10.82;5.18;;;24.90;90.70;;;;;;5012795;28;21647;-69
2022/05/19 09:08:57;;;;;;;7.85;5.38;;;24.80;90.20;;;;;;5012813;28;20040;-61
2022/05/19 09:11:55;;;;;;;7.93;5.45;;;24.90;90.40;;;;;;5012752;28;20030;-62
2022/05/19 09:14:23;;;;;;;9.35;5.03;;;24.90;90.40;;;;;;5010289;28;20061;-64
2022/05/19 09:16:49;;;;;;;9.13;5.85;;;24.90;90.70;;;;;;5012959;28;20093;-61
2022/05/19 09:19:40;;;;;;;8.75;5.38;;;24.90;90.70;;;;;;5012354;28;20029;-62
2022/05/19 09:22:15;;;;;;;11.30;5.25;;;24.90;90.60;;;;;;5005223;28;20116;-61
2022/05/19 09:24:44;;;;;;;6.40;5.35;;;24.90;90.60;;;;;;5005797;28;20030;-65
2022/05/19 09:27:10;;;;;;;7.28;4.60;;;24.90;90.70;;;;;;5012066;28;20785;-65
2022/05/19 09:29:49;;;;;;;7.68;4.18;;;24.90;90.60;;;;;;5005050;28;20088;-66
2022/05/19 09:32:15;;;;;;;9.23;4.88;;;24.90;90.20;;;;;;4991695;28;20396;-61
2022/05/19 09:34:44;;;;;;;5.32;3.70;;;24.90;90.50;;;;;;5009087;28;20032;-63
2022/05/19 09:37:14;;;;;;;6.47;3.70;;;24.90;90.30;;;;;;5009529;28;20104;-63
2022/05/19 09:40:06;;;;;;;8.07;3.95;;;24.90;90.30;;;;;;5008331;28;20515;-64
2022/05/19 09:42:35;;;;;;;9.25;4.03;;;25.00;90.00;;;;;;5008341;28;20158;-66
2022/05/19 09:45:02;;;;;;;7.40;4.20;;;24.90;90.10;;;;;;5011988;28;20033;-61
2022/05/19 09:47:33;;;;;;;6.05;3.90;;;25.00;90.10;;;;;;5006213;28;20026;-63
2022/05/19 09:50:10;;;;;;;6.22;4.20;;;25.00;90.00;;;;;;5010434;28;20479;-65
2022/05/19 09:52:40;;;;;;;10.82;5.50;;;25.10;90.00;;;;;;5013297;28;20388;-60
2022/05/19 09:55:09;;;;;;;7.40;4.35;;;25.00;90.40;;;;;;5016258;28;20026;-64
2022/05/19 09:57:44;;;;;;;7.43;4.97;;;25.10;90.40;;;;;;5012536;28;20510;-61
2022/05/19 10:00:25;;;;;;;6.65;4.03;;;25.10;90.40;;;;;;5011182;28;20050;-65
2022/05/19 10:02:55;;;;;;;10.50;5.70;;;25.10;90.40;;;;;;5012388;28;20037;-59
2022/05/19 10:05:47;;;;;;;10.77;5.80;;;25.10;90.60;;;;;;5015205;28;20030;-66
2022/05/19 10:08:14;;;;;;;8.77;5.43;;;25.10;89.90;;;;;;5013057;28;20050;-64
2022/05/19 10:11:06;;;;;;;8.93;6.22;;;25.10;90.40;;;;;;5016323;28;20045;-67
2022/05/19 10:13:48;;;;;;;11.07;5.85;;;25.10;90.20;;;;;;5015749;28;20050;-61
2022/05/19 10:16:22;;;;;;;13.05;7.30;;;25.10;90.00;;;;;;5015966;28;20105;-67
2022/05/19 10:19:09;;;;;;;15.18;7.13;;;25.20;90.40;;;;;;5013249;28;20057;-66
2022/05/19 10:22:00;;;;;;;8.20;4.97;;;25.20;90.00;;;;;;5009956;28;20033;-65
2022/05/19 10:24:55;;;;;;;8.93;5.82;;;25.10;89.50;;;;;;5016583;28;20399;-66
2022/05/19 10:33:32;;;;;;;11.35;4.95;;;25.10;90.80;;;;;;5015859;28;20111;-66
2022/05/19 10:36:25;;;;;;;8.20;5.15;;;25.10;90.20;;;;;;5015861;28;20041;-67
2022/05/19 10:38:53;;;;;;;8.40;3.80;;;25.10;90.20;;;;;;5015575;28;20089;-60
2022/05/19 10:41:18;;;;;;;10.98;4.20;;;25.10;90.20;;;;;;5015601;28;20108;-60
2022/05/19 10:43:54;;;;;;;6.55;3.65;;;25.10;90.20;;;;;;5014537;28;20105;-63
2022/05/19 10:46:23;;;;;;;6.50;3.30;;;25.00;90.00;;;;;;5015856;28;20574;-63
2022/05/19 10:48:58;;;;;;;6.93;3.63;;;25.00;90.00;;;;;;5015810;28;20100;-63
2022/05/19 10:51:33;;;;;;;12.02;3.75;;;25.10;89.80;;;;;;5015611;28;20041;-63
2022/05/19 10:54:13;;;;;;;8.50;4.35;;;25.00;89.70;;;;;;5015385;28;20041;-60
2022/05/19 10:56:55;;;;;;;8.68;3.75;;;25.00;90.20;;;;;;5014186;28;20022;-66
2022/05/19 10:59:27;;;;;;;;;;;25.00;90.30;;;;;;5012605;28;20128;-66
2022/05/19 11:02:07;;;;;;;5.85;3.47;;;24.90;90.40;;;;;;5011272;28;19933;-64
2022/05/19 11:05:15;;;;;;;6.45;4.38;;;24.90;90.20;;;;;;4995438;28;20109;-66
2022/05/19 11:07:57;;;;;;;7.22;4.30;;;24.90;90.30;;;;;;5001898;28;20041;-67
2022/05/19 11:10:41;;;;;;;8.85;5.25;;;24.90;90.50;;;;;;5015750;28;20037;-66
2022/05/19 11:13:42;;;;;;;10.45;6.30;;;24.90;90.40;;;;;;5011537;28;20475;-66
2022/05/19 11:16:36;;;;;;;8.77;6.53;;;24.80;90.80;;;;;;5015326;28;20494;-66
2022/05/19 11:19:26;;;;;;;10.00;7.43;;;24.70;90.90;;;;;;5012752;28;20112;-66
2022/05/19 11:21:56;;;;;;;10.00;5.63;;;24.60;91.30;;;;;;5014945;28;20396;-66
2022/05/19 11:26:23;;;;;;;8.00;5.18;;;24.60;90.70;;;;;;5014874;28;20034;-67
2022/05/19 11:27:25;;;;;;;6.70;5.90;;;24.70;90.40;;;;;;5014687;28;20041;-66
2022/05/19 11:30:01;;;;;;;9.27;6.18;;;24.80;90.70;;;;;;5012805;28;20427;-66
2022/05/19 11:32:37;;;;;;;11.40;5.50;;;24.80;90.80;;;;;;5013620;28;20454;-67
2022/05/19 11:35:12;;;;;;;8.35;5.82;;;24.70;90.50;;;;;;5012687;28;20048;-64
2022/05/19 11:37:53;;;;;;;9.32;5.30;;;24.80;90.50;;;;;;5006945;28;20057;-62
2022/05/19 11:40:47;;;;;;;9.40;5.20;;;24.80;90.40;;;;;;5012945;28;20120;-65
2022/05/19 11:43:27;;;;;;;7.63;5.15;;;24.80;90.40;;;;;;5012269;28;20656;-58
2022/05/19 11:46:04;;;;;;;8.07;5.68;;;24.80;90.50;;;;;;5013371;28;20034;-61
2022/05/19 11:55:24;;;;;;;7.45;5.50;;;24.80;90.50;;;;;;5012910;28;20096;-60
2022/05/19 11:57:55;;;;;;;9.00;5.43;;;24.80;90.70;;;;;;5012694;28;20135;-66
2022/05/19 12:00:26;;;;;;;5.72;4.38;;;24.80;91.60;;;;;;5012732;28;20101;-61
2022/05/19 12:03:10;;;;;;;8.25;4.68;;;24.80;90.50;;;;;;5011867;28;20541;-64
2022/05/19 12:06:01;;;;;;;5.28;4.28;;;24.70;90.40;;;;;;5012744;28;20124;-65
2022/05/19 12:08:36;;;;;;;5.75;4.20;;;24.70;90.30;;;;;;5011805;28;20037;-69
2022/05/19 12:11:19;;;;;;;5.20;4.07;;;24.70;90.20;;;;;;5012349;28;20450;-64
2022/05/19 12:14:11;;;;;;;4.82;3.85;;;24.80;90.50;;;;;;5012346;28;20144;-66
2022/05/19 12:16:52;;;;;;;8.40;4.10;;;24.80;90.40;;;;;;5011780;28;20060;-66
2022/05/19 12:19:51;;;;;;;10.55;4.53;;;24.80;90.50;;;;;;5012725;28;20041;-65
2022/05/19 12:22:18;;;;;;;4.72;3.70;;;24.80;90.40;;;;;;5011424;28;20041;-66
2022/05/19 12:24:54;;;;;;;7.10;4.53;;;24.80;90.40;;;;;;5005486;28;20386;-63
2022/05/19 12:27:29;;;;;;;6.07;4.95;;;24.80;90.30;;;;;;5010562;28;20088;-65
2022/05/19 12:33:10;;;;;;;5.93;4.60;;;24.70;90.00;;;;;;5123745;28;20043;-72
2022/05/19 12:35:37;;;;;;;5.00;3.80;;;24.80;90.30;;;;;;5121998;27;20031;-72
2022/05/19 12:38:07;;;;;;;5.55;3.97;;;24.80;90.30;;;;;;5123566;27;20110;-69
2022/05/19 12:40:53;;;;;;;5.95;3.58;;;24.80;90.40;;;;;;5119028;28;20032;-68
2022/05/19 12:43:23;;;;;;;5.35;3.97;;;24.80;90.70;;;;;;5117898;28;20383;-71
2022/05/19 12:45:51;;;;;;;6.95;3.83;;;24.80;90.70;;;;;;5111629;28;20103;-70
2022/05/19 12:48:18;;;;;;;4.85;3.83;;;24.80;90.90;;;;;;5114395;28;20112;-69
2022/05/19 12:50:46;;;;;;;7.15;4.43;;;24.80;91.00;;;;;;5115083;27;20039;-68
2022/05/19 12:53:23;;;;;;;5.20;3.67;;;24.80;91.10;;;;;;5119684;28;20487;-66
2022/05/19 12:55:53;;;;;;;7.68;3.92;;;24.90;91.00;;;;;;5112197;28;20063;-68
2022/05/19 12:58:39;;;;;;;5.18;3.38;;;24.90;91.00;;;;;;5114372;28;20036;-67
2022/05/19 13:01:09;;;;;;;7.00;3.80;;;24.90;91.10;;;;;;5113083;28;20468;-69
2022/05/19 13:03:35;;;;;;;8.77;3.08;;;24.90;90.90;;;;;;5127589;28;20034;-68
2022/05/19 13:06:07;;;;;;;5.88;3.17;;;24.90;90.60;;;;;;5120158;27;20024;-70
2022/05/19 13:08:37;;;;;;;7.68;2.72;;;24.90;90.60;;;;;;5107609;28;20233;-68
2022/05/19 13:11:13;;;;;;;5.72;2.53;;;24.90;90.50;;;;;;5111027;28;20035;-68
2022/05/19 13:14:05;;;;;;;7.78;3.00;;;24.90;90.40;;;;;;5127443;28;20665;-68
2022/05/19 13:16:32;;;;;;;;;;;24.90;90.70;;;;;;5118984;27;20040;-69
2022/05/19 13:19:05;;;;;;;4.18;2.90;;;24.90;90.90;;;;;;5127103;28;19923;-69
2022/05/19 13:21:40;;;;;;;4.22;3.08;;;24.90;91.50;;;;;;5127652;28;20058;-69
2022/05/19 13:24:10;;;;;;;3.65;2.55;;;24.90;91.00;;;;;;5124948;27;20120;-68